Time;durP1;ratioP1;P1;durP2;ratioP2;P2;SDS_P1;SDS_P2;PMS_P1;PMS_P2;Temp;Humidity;BMP_temperature;BMP_pressure;BME280_temperature;BME280_humidity;BME280_pressure;Samples;Min_cycle;Max_cycle;Signal;HPM_P1;HPM_P2
2023/01/15 00:01:27;;;;;;;1.40;0.60;;;8.00;99.90;;;;;;5011188;28;20849;-72
2023/01/15 00:03:54;;;;;;;2.70;0.70;;;8.00;99.90;;;;;;5009091;28;20187;-72
2023/01/15 00:06:21;;;;;;;1.10;0.40;;;7.90;99.90;;;;;;5010274;28;20764;-72
2023/01/15 00:08:47;;;;;;;1.17;0.47;;;8.00;99.90;;;;;;5010975;28;20437;-73
2023/01/15 00:11:13;;;;;;;1.20;0.60;;;8.00;99.90;;;;;;5024199;28;20472;-73
2023/01/15 00:13:40;;;;;;;2.07;0.60;;;8.00;99.90;;;;;;5021949;28;20811;-73
2023/01/15 00:16:26;;;;;;;1.10;0.50;;;8.00;99.90;;;;;;5012524;28;20433;-73
2023/01/15 00:18:57;;;;;;;1.10;0.50;;;8.00;99.90;;;;;;5024826;28;20543;-73
2023/01/15 00:21:24;;;;;;;1.10;0.50;;;8.00;99.90;;;;;;5023664;28;20438;-72
2023/01/15 00:29:21;;;;;;;1.30;0.70;;;8.10;99.90;;;;;;5027653;28;20416;-73
2023/01/15 00:31:54;;;;;;;1.50;0.60;;;8.10;99.90;;;;;;5027714;28;20517;-72
2023/01/15 00:34:20;;;;;;;1.10;0.50;;;8.20;99.90;;;;;;5034711;28;20413;-73
2023/01/15 00:36:46;;;;;;;1.50;0.60;;;8.20;99.90;;;;;;5021542;28;20430;-72
2023/01/15 00:39:11;;;;;;;1.30;0.50;;;8.20;99.90;;;;;;5023962;28;20538;-73
2023/01/15 00:41:37;;;;;;;1.07;0.43;;;8.20;99.90;;;;;;5016216;28;20187;-72
2023/01/15 00:44:03;;;;;;;2.03;0.73;;;8.20;99.90;;;;;;5034010;28;20280;-72
2023/01/15 00:46:28;;;;;;;2.43;0.60;;;8.20;99.90;;;;;;5034117;28;20186;-72
2023/01/15 00:48:54;;;;;;;1.03;0.40;;;8.20;99.90;;;;;;5033463;28;20261;-72
2023/01/15 00:51:19;;;;;;;1.10;0.40;;;8.20;99.90;;;;;;5020704;28;20187;-72
2023/01/15 00:53:45;;;;;;;1.70;0.70;;;8.20;99.90;;;;;;5033796;28;20623;-73
2023/01/15 00:56:10;;;;;;;1.10;0.40;;;8.20;99.90;;;;;;5033199;28;20277;-72
2023/01/15 00:58:36;;;;;;;1.10;0.40;;;8.20;99.90;;;;;;5026091;28;20226;-72
2023/01/15 01:01:02;;;;;;;1.80;0.77;;;8.10;99.90;;;;;;5013433;28;20190;-72
2023/01/15 01:03:28;;;;;;;1.30;0.67;;;8.20;99.90;;;;;;5014057;28;20187;-72
2023/01/15 01:06:02;;;;;;;1.10;0.40;;;8.30;99.90;;;;;;5027970;28;20182;-72
2023/01/15 01:08:28;;;;;;;2.30;0.83;;;8.30;99.90;;;;;;5033986;28;20421;-72
2023/01/15 01:11:09;;;;;;;1.83;0.40;;;8.30;99.90;;;;;;5031433;28;20878;-72
2023/01/15 01:13:36;;;;;;;1.10;0.50;;;8.30;99.90;;;;;;5023963;28;20785;-73
2023/01/15 01:16:02;;;;;;;1.10;0.50;;;8.30;99.90;;;;;;5033219;28;20520;-72
2023/01/15 01:18:28;;;;;;;2.40;0.93;;;8.30;99.90;;;;;;5033923;28;20882;-73
2023/01/15 01:20:54;;;;;;;3.53;0.70;;;8.30;99.90;;;;;;5030848;28;20546;-73
2023/01/15 01:23:21;;;;;;;1.50;0.53;;;8.20;99.90;;;;;;5033359;28;20491;-73
2023/01/15 01:25:47;;;;;;;1.10;0.50;;;8.20;99.90;;;;;;5021634;28;20764;-73
2023/01/15 01:28:12;;;;;;;1.70;0.60;;;8.20;99.90;;;;;;5025143;28;20508;-73
2023/01/15 01:30:38;;;;;;;1.10;0.50;;;8.30;99.90;;;;;;5020907;28;20232;-73
2023/01/15 01:33:04;;;;;;;1.10;0.50;;;8.30;99.90;;;;;;5024172;28;20194;-73
2023/01/15 01:35:30;;;;;;;1.20;0.50;;;8.30;99.90;;;;;;5015712;28;20199;-72
2023/01/15 01:37:56;;;;;;;1.10;0.50;;;8.30;99.90;;;;;;5013446;28;20462;-73
2023/01/15 01:40:21;;;;;;;1.60;0.60;;;8.30;99.90;;;;;;5030299;28;20186;-72
2023/01/15 01:42:47;;;;;;;2.03;0.70;;;8.30;99.90;;;;;;5032910;28;20659;-73
2023/01/15 01:45:18;;;;;;;1.43;0.50;;;8.40;99.90;;;;;;5028466;28;20265;-73
2023/01/15 01:47:44;;;;;;;1.30;0.53;;;8.40;99.90;;;;;;5013458;28;20211;-73
2023/01/15 01:50:12;;;;;;;1.20;0.50;;;8.40;99.90;;;;;;5026188;28;20425;-73
2023/01/15 01:53:09;;;;;;;1.20;0.60;;;8.50;99.90;;;;;;5024555;28;20421;-73
2023/01/15 01:55:36;;;;;;;1.63;0.50;;;8.30;99.90;;;;;;4992299;28;20451;-73
2023/01/15 01:58:05;;;;;;;1.10;0.50;;;8.40;99.90;;;;;;5026000;28;20559;-73
2023/01/15 02:00:33;;;;;;;1.10;0.40;;;8.40;99.90;;;;;;5012485;28;20434;-73
2023/01/15 02:03:01;;;;;;;2.27;0.60;;;8.40;99.90;;;;;;5016751;28;20428;-73
2023/01/15 02:05:30;;;;;;;1.47;0.57;;;8.40;99.90;;;;;;5032949;28;20417;-73
2023/01/15 02:07:56;;;;;;;1.10;0.50;;;8.50;99.90;;;;;;5032891;28;20432;-73
2023/01/15 02:10:22;;;;;;;1.20;0.60;;;8.40;99.90;;;;;;5032874;28;20503;-73
2023/01/15 02:13:03;;;;;;;1.10;0.50;;;8.50;99.90;;;;;;5014828;28;20485;-73
2023/01/15 02:15:37;;;;;;;1.50;0.63;;;8.50;99.90;;;;;;5025661;28;20198;-73
2023/01/15 02:18:30;;;;;;;1.37;0.50;;;8.40;99.90;;;;;;5001058;28;20469;-73
2023/01/15 02:21:15;;;;;;;1.10;0.50;;;8.60;99.90;;;;;;5027772;28;20456;-73
2023/01/15 02:24:06;;;;;;;1.20;0.50;;;8.60;99.90;;;;;;5031931;28;20413;-73
2023/01/15 02:26:50;;;;;;;1.37;0.40;;;8.60;99.90;;;;;;5011416;28;20907;-73
2023/01/15 02:29:29;;;;;;;1.10;0.40;;;8.60;99.90;;;;;;5012196;28;20426;-73
2023/01/15 02:31:57;;;;;;;1.20;0.50;;;8.70;99.90;;;;;;5025448;28;20425;-74
2023/01/15 02:34:28;;;;;;;1.20;0.50;;;8.70;99.90;;;;;;5012544;28;20933;-73
2023/01/15 02:37:08;;;;;;;1.80;0.50;;;8.80;99.90;;;;;;5012706;28;20533;-73
2023/01/15 02:39:39;;;;;;;1.10;0.40;;;8.70;99.90;;;;;;5019079;28;20484;-73
2023/01/15 02:42:07;;;;;;;1.10;0.40;;;8.70;99.90;;;;;;5016907;28;20433;-73
2023/01/15 02:44:37;;;;;;;1.30;0.50;;;8.80;99.90;;;;;;5031096;28;20425;-73
2023/01/15 02:47:04;;;;;;;1.10;0.40;;;8.80;99.90;;;;;;5017205;28;20520;-73
2023/01/15 02:49:31;;;;;;;1.20;0.50;;;8.80;99.90;;;;;;5031418;28;20456;-73
2023/01/15 02:52:07;;;;;;;2.03;0.60;;;8.90;99.90;;;;;;5031802;28;20416;-74
2023/01/15 02:54:42;;;;;;;1.73;0.50;;;8.90;99.90;;;;;;5030297;28;20474;-74
2023/01/15 02:57:10;;;;;;;1.83;0.50;;;9.00;99.90;;;;;;5011209;28;20859;-74
2023/01/15 02:59:41;;;;;;;1.10;0.40;;;9.00;99.90;;;;;;5011712;28;21022;-73
2023/01/15 03:02:12;;;;;;;1.13;0.43;;;9.00;99.90;;;;;;5020376;28;20746;-74
2023/01/15 03:04:53;;;;;;;1.10;0.40;;;9.10;99.90;;;;;;5029541;28;20413;-74
2023/01/15 03:07:19;;;;;;;1.10;0.40;;;9.10;99.90;;;;;;5031975;28;21111;-74
2023/01/15 03:09:46;;;;;;;1.10;0.40;;;9.20;99.90;;;;;;5031417;28;20425;-74
2023/01/15 03:13:01;;;;;;;1.10;0.43;;;9.30;99.90;;;;;;5018591;28;20202;-73
2023/01/15 03:18:40;;;;;;;1.10;0.40;;;9.50;99.90;;;;;;5004172;28;21007;-74
2023/01/15 03:21:09;;;;;;;1.10;0.40;;;9.70;99.90;;;;;;5022652;28;20414;-74
2023/01/15 03:23:38;;;;;;;1.30;0.50;;;9.70;99.90;;;;;;5024734;28;20413;-74
2023/01/15 03:26:04;;;;;;;1.10;0.40;;;9.90;99.90;;;;;;5024446;28;20852;-74
2023/01/15 03:28:35;;;;;;;1.33;0.50;;;9.80;99.90;;;;;;5018177;28;20493;-74
2023/01/15 03:31:01;;;;;;;1.10;0.50;;;9.90;99.90;;;;;;5023239;28;20193;-74
2023/01/15 03:33:28;;;;;;;1.10;0.40;;;10.00;99.90;;;;;;5017889;28;20837;-74
2023/01/15 03:35:58;;;;;;;1.20;0.60;;;10.00;99.90;;;;;;5031450;28;20420;-74
2023/01/15 03:38:31;;;;;;;1.10;0.40;;;10.00;99.90;;;;;;5029839;28;20917;-73
2023/01/15 03:41:23;;;;;;;1.10;0.40;;;9.90;99.90;;;;;;5020353;28;20409;-74
2023/01/15 03:44:26;;;;;;;1.40;0.50;;;10.00;99.90;;;;;;5022953;28;20453;-74
2023/01/15 03:47:04;;;;;;;1.10;0.50;;;10.00;99.90;;;;;;5012238;28;20429;-75
2023/01/15 03:49:55;;;;;;;1.30;0.50;;;10.00;99.90;;;;;;5031363;28;20467;-75
2023/01/15 03:52:33;;;;;;;1.10;0.40;;;10.10;99.90;;;;;;5030609;28;20417;-74
2023/01/15 03:55:09;;;;;;;1.10;0.40;;;10.10;99.90;;;;;;5030856;28;20429;-74
2023/01/15 03:57:44;;;;;;;1.10;0.40;;;10.00;99.90;;;;;;5035427;28;20444;-75
2023/01/15 04:00:17;;;;;;;1.10;0.40;;;10.00;99.90;;;;;;5012626;28;20434;-74
2023/01/15 04:02:45;;;;;;;1.10;0.40;;;9.90;99.90;;;;;;5023791;28;20418;-74
2023/01/15 04:05:12;;;;;;;1.10;0.40;;;9.70;99.90;;;;;;5023661;28;20944;-74
2023/01/15 04:07:38;;;;;;;1.60;0.47;;;9.60;99.90;;;;;;5020110;28;20422;-74
2023/01/15 04:10:08;;;;;;;1.20;0.50;;;9.60;99.90;;;;;;5023636;28;20479;-75
2023/01/15 04:12:33;;;;;;;1.20;0.50;;;9.60;99.90;;;;;;5034317;28;20422;-74
2023/01/15 04:14:59;;;;;;;1.10;0.40;;;9.60;99.90;;;;;;5034422;28;20424;-74
2023/01/15 04:17:25;;;;;;;1.10;0.40;;;9.60;99.90;;;;;;5032740;28;20197;-74
2023/01/15 04:19:50;;;;;;;1.20;0.50;;;9.70;99.90;;;;;;5024078;28;20574;-74
2023/01/15 04:22:16;;;;;;;1.10;0.40;;;9.80;99.90;;;;;;5032305;28;20197;-74
2023/01/15 04:24:42;;;;;;;1.10;0.50;;;10.10;99.90;;;;;;5020489;28;20179;-74
2023/01/15 04:27:07;;;;;;;1.10;0.50;;;10.00;99.90;;;;;;5012163;28;20191;-74
2023/01/15 04:29:33;;;;;;;1.10;0.40;;;10.10;99.90;;;;;;5002675;28;20249;-74
2023/01/15 04:31:58;;;;;;;1.20;0.50;;;10.00;99.90;;;;;;5009543;28;20526;-73
2023/01/15 04:34:26;;;;;;;1.10;0.40;;;9.90;99.90;;;;;;5001747;28;20191;-74
2023/01/15 04:36:51;;;;;;;1.10;0.47;;;9.80;99.90;;;;;;5006081;28;20285;-74
2023/01/15 04:39:17;;;;;;;1.53;0.80;;;9.80;99.90;;;;;;5006397;28;20585;-74
2023/01/15 04:44:28;;;;;;;1.50;0.70;;;9.60;99.90;;;;;;5007575;28;20241;-74
2023/01/15 04:46:54;;;;;;;1.20;0.60;;;9.70;99.90;;;;;;5014090;28;20425;-74
2023/01/15 04:49:20;;;;;;;2.70;0.70;;;9.70;99.90;;;;;;5002050;28;20789;-74
2023/01/15 04:51:46;;;;;;;1.20;0.50;;;9.60;99.90;;;;;;5007434;28;20426;-74
2023/01/15 04:54:13;;;;;;;1.10;0.40;;;9.50;99.90;;;;;;4994986;28;20205;-74
2023/01/15 04:56:44;;;;;;;1.10;0.50;;;9.50;99.90;;;;;;4995440;28;20419;-73
2023/01/15 04:59:11;;;;;;;1.10;0.40;;;9.50;99.90;;;;;;5006613;28;20497;-74
2023/01/15 05:01:36;;;;;;;1.13;0.53;;;9.40;99.90;;;;;;5013642;28;20427;-74
2023/01/15 05:04:03;;;;;;;1.10;0.50;;;9.50;99.90;;;;;;5014165;28;20827;-73
2023/01/15 05:06:30;;;;;;;1.20;0.50;;;9.60;99.90;;;;;;5013124;28;20229;-73
2023/01/15 05:08:56;;;;;;;1.10;0.40;;;9.70;99.90;;;;;;5002198;28;20425;-73
2023/01/15 05:11:22;;;;;;;1.20;0.50;;;9.80;99.90;;;;;;5007678;28;20423;-74
2023/01/15 05:13:48;;;;;;;1.10;0.40;;;9.80;99.90;;;;;;4994236;28;20509;-73
2023/01/15 05:16:15;;;;;;;1.10;0.40;;;10.00;99.90;;;;;;4993909;28;20180;-74
2023/01/15 05:18:42;;;;;;;1.10;0.40;;;10.00;99.90;;;;;;5006510;28;20203;-74
2023/01/15 05:21:35;;;;;;;1.20;0.50;;;9.90;99.90;;;;;;5004382;28;20418;-74
2023/01/15 05:24:05;;;;;;;1.20;0.50;;;10.00;99.90;;;;;;5009009;28;20573;-74
2023/01/15 05:26:32;;;;;;;1.47;0.63;;;9.90;99.90;;;;;;5003777;28;20790;-74
2023/01/15 05:28:59;;;;;;;1.57;0.60;;;9.90;99.90;;;;;;5013791;28;20425;-73
2023/01/15 05:31:25;;;;;;;1.50;0.80;;;10.00;99.90;;;;;;4995125;28;20427;-74
2023/01/15 05:33:52;;;;;;;1.97;0.50;;;9.90;99.90;;;;;;5007034;28;21066;-74
2023/01/15 05:36:24;;;;;;;1.10;0.40;;;9.90;99.90;;;;;;5004441;28;20469;-72
2023/01/15 05:38:51;;;;;;;1.10;0.40;;;9.90;99.90;;;;;;5009585;28;20534;-74
2023/01/15 05:44:05;;;;;;;1.10;0.40;;;9.90;99.90;;;;;;4995531;28;20442;-74
2023/01/15 05:46:33;;;;;;;1.07;0.40;;;9.50;99.90;;;;;;5011390;28;20464;-72
2023/01/15 05:49:00;;;;;;;1.10;0.40;;;8.90;99.90;;;;;;5005749;28;20492;-71
2023/01/15 05:51:26;;;;;;;1.10;0.40;;;8.50;99.90;;;;;;5007908;28;20442;-71
2023/01/15 05:53:52;;;;;;;1.10;0.40;;;8.10;99.90;;;;;;5013106;28;20438;-71
2023/01/15 05:56:18;;;;;;;1.10;0.50;;;7.90;99.90;;;;;;5012868;28;20422;-71
2023/01/15 05:58:43;;;;;;;1.10;0.40;;;7.60;99.90;;;;;;5013127;28;20215;-71
2023/01/15 06:01:10;;;;;;;1.10;0.40;;;7.40;99.90;;;;;;5012585;28;20523;-71
2023/01/15 06:03:36;;;;;;;1.10;0.40;;;7.20;99.90;;;;;;5013066;28;20222;-71
2023/01/15 06:06:02;;;;;;;1.10;0.40;;;7.00;99.90;;;;;;5013177;28;20421;-71
2023/01/15 06:08:27;;;;;;;1.10;0.40;;;6.90;99.90;;;;;;5005266;28;20192;-71
2023/01/15 06:10:53;;;;;;;1.10;0.40;;;6.80;99.90;;;;;;4995713;28;20415;-71
2023/01/15 06:13:18;;;;;;;1.10;0.50;;;6.70;99.90;;;;;;5011235;28;20761;-70
2023/01/15 06:15:44;;;;;;;1.10;0.40;;;6.70;99.90;;;;;;5011099;28;20198;-71
2023/01/15 06:18:10;;;;;;;1.10;0.40;;;6.60;99.90;;;;;;5000281;28;20326;-70
2023/01/15 06:20:37;;;;;;;1.10;0.40;;;6.60;99.90;;;;;;5006936;28;20191;-70
2023/01/15 06:23:03;;;;;;;1.07;0.40;;;6.50;99.90;;;;;;5009257;28;20502;-70
2023/01/15 06:25:29;;;;;;;1.10;0.40;;;6.50;99.90;;;;;;4999602;28;20482;-70
2023/01/15 06:27:54;;;;;;;1.10;0.40;;;6.40;99.90;;;;;;5012620;28;20179;-70
2023/01/15 06:30:20;;;;;;;1.10;0.40;;;6.40;99.90;;;;;;5007559;28;20191;-70
2023/01/15 06:32:46;;;;;;;1.10;0.40;;;6.40;99.90;;;;;;5004602;28;20193;-70
2023/01/15 06:35:13;;;;;;;1.10;0.40;;;6.40;99.90;;;;;;5007637;28;20179;-70
2023/01/15 06:37:38;;;;;;;1.07;0.40;;;6.40;99.90;;;;;;5000549;28;20678;-70
2023/01/15 06:40:05;;;;;;;1.10;0.40;;;6.40;99.90;;;;;;4999340;28;20554;-70
2023/01/15 06:47:58;;;;;;;1.33;0.50;;;6.20;99.90;;;;;;5005662;28;20541;-69
2023/01/15 06:50:24;;;;;;;1.53;0.50;;;6.10;99.90;;;;;;5013621;28;20965;-69
2023/01/15 06:52:50;;;;;;;1.07;0.40;;;6.10;99.90;;;;;;5001867;28;20175;-70
2023/01/15 06:55:17;;;;;;;1.10;0.50;;;6.00;99.90;;;;;;5007614;28;20748;-70
2023/01/15 06:57:43;;;;;;;1.10;0.40;;;6.10;99.90;;;;;;4994744;28;20879;-69
2023/01/15 07:00:10;;;;;;;1.10;0.40;;;6.00;99.90;;;;;;5013886;28;20520;-70
2023/01/15 07:02:35;;;;;;;1.07;0.43;;;6.00;99.90;;;;;;5012203;28;20757;-70
2023/01/15 07:05:01;;;;;;;1.97;0.50;;;6.00;99.90;;;;;;5006265;28;20422;-70
2023/01/15 07:07:28;;;;;;;1.10;0.40;;;5.90;99.90;;;;;;5006633;28;20179;-70
2023/01/15 07:09:54;;;;;;;1.10;0.40;;;5.90;99.90;;;;;;5005399;28;20267;-70
2023/01/15 07:12:20;;;;;;;1.10;0.40;;;5.90;99.90;;;;;;4992459;28;20506;-70
2023/01/15 07:14:46;;;;;;;1.10;0.40;;;5.80;99.90;;;;;;5004730;28;20269;-70
2023/01/15 07:17:12;;;;;;;1.00;0.40;;;5.80;99.90;;;;;;5011860;28;20493;-70
2023/01/15 07:19:37;;;;;;;1.07;0.40;;;5.70;99.90;;;;;;4999326;28;20210;-70
2023/01/15 07:22:04;;;;;;;1.10;0.40;;;5.70;99.90;;;;;;4998674;28;20421;-70
2023/01/15 07:24:29;;;;;;;1.20;0.50;;;5.70;99.90;;;;;;4999416;28;20506;-70
2023/01/15 07:26:55;;;;;;;1.10;0.40;;;5.70;99.90;;;;;;5004445;28;20421;-70
2023/01/15 07:29:22;;;;;;;1.10;0.50;;;5.70;99.90;;;;;;4993179;28;20203;-71
2023/01/15 07:31:48;;;;;;;1.07;0.40;;;5.60;99.90;;;;;;4998299;28;20189;-69
2023/01/15 07:34:14;;;;;;;1.10;0.60;;;5.60;99.90;;;;;;4998960;28;20421;-69
2023/01/15 07:36:39;;;;;;;1.00;0.40;;;5.60;99.90;;;;;;4998740;28;20426;-69
2023/01/15 07:39:06;;;;;;;1.00;0.40;;;5.50;99.90;;;;;;4992623;28;20207;-69
2023/01/15 07:49:45;;;;;;;1.10;0.40;;;5.40;99.90;;;;;;5005374;28;20521;-69
2023/01/15 07:52:12;;;;;;;1.03;0.40;;;5.30;99.90;;;;;;4991996;28;20502;-69
2023/01/15 07:54:38;;;;;;;1.00;0.40;;;5.30;99.90;;;;;;4991287;28;20753;-69
2023/01/15 07:57:04;;;;;;;1.10;0.40;;;5.30;99.90;;;;;;4997535;28;20454;-69
2023/01/15 07:59:30;;;;;;;1.03;0.40;;;5.20;99.90;;;;;;5008875;28;20284;-69
2023/01/15 08:01:55;;;;;;;1.10;0.40;;;5.20;99.90;;;;;;5010855;28;20422;-70
2023/01/15 08:04:21;;;;;;;1.10;0.40;;;5.10;99.90;;;;;;5011556;28;20746;-70
2023/01/15 08:06:47;;;;;;;1.10;0.40;;;5.10;99.90;;;;;;5012020;28;20185;-70
2023/01/15 08:09:12;;;;;;;1.10;0.40;;;5.10;99.90;;;;;;4998563;28;20184;-70
2023/01/15 08:17:06;;;;;;;1.73;0.50;;;5.10;99.90;;;;;;4998878;28;20418;-70
2023/01/15 08:19:32;;;;;;;1.10;0.40;;;5.10;99.90;;;;;;4991862;28;20467;-70
2023/01/15 08:22:00;;;;;;;1.03;0.40;;;5.10;99.90;;;;;;5007392;28;20581;-70
2023/01/15 08:24:26;;;;;;;3.10;0.60;;;5.10;99.90;;;;;;5005216;28;20180;-70
2023/01/15 08:26:52;;;;;;;1.30;0.40;;;5.10;99.90;;;;;;5005256;28;20422;-69
2023/01/15 08:29:18;;;;;;;1.10;0.40;;;5.10;99.90;;;;;;4998406;28;20286;-69
2023/01/15 08:31:44;;;;;;;1.10;0.40;;;5.10;99.90;;;;;;4997861;28;20187;-69
2023/01/15 08:34:09;;;;;;;1.00;0.40;;;5.10;99.90;;;;;;4991778;28;20418;-70
2023/01/15 08:36:35;;;;;;;1.03;0.40;;;5.10;99.90;;;;;;5004728;28;20183;-70
2023/01/15 08:39:01;;;;;;;1.07;0.40;;;5.10;99.90;;;;;;5008903;28;20812;-69
2023/01/15 08:41:27;;;;;;;1.20;0.40;;;5.10;99.90;;;;;;5007796;28;20190;-70
2023/01/15 08:43:52;;;;;;;1.40;0.80;;;5.00;99.90;;;;;;5015217;28;20438;-70
2023/01/15 08:46:18;;;;;;;1.20;0.50;;;5.10;99.90;;;;;;5007677;28;20175;-70
2023/01/15 08:48:44;;;;;;;2.23;1.10;;;5.10;99.90;;;;;;5004301;28;20230;-70
2023/01/15 08:51:11;;;;;;;3.53;1.77;;;5.10;99.90;;;;;;5011202;28;20183;-69
2023/01/15 08:53:37;;;;;;;1.93;1.03;;;5.10;99.90;;;;;;5007845;28;20818;-69
2023/01/15 08:56:03;;;;;;;1.43;0.70;;;5.10;99.90;;;;;;5009056;28;20419;-69
2023/01/15 08:58:30;;;;;;;1.10;0.50;;;5.10;99.90;;;;;;5011860;28;20552;-69
2023/01/15 09:01:03;;;;;;;1.57;0.77;;;5.00;99.90;;;;;;5006229;28;20435;-69
2023/01/15 09:03:28;;;;;;;1.30;0.73;;;5.00;99.90;;;;;;5003905;28;20413;-70
2023/01/15 09:05:57;;;;;;;1.30;0.53;;;5.00;99.90;;;;;;5001098;28;20917;-69
2023/01/15 09:08:23;;;;;;;2.23;1.10;;;5.00;99.90;;;;;;5007394;28;20660;-70
2023/01/15 09:10:48;;;;;;;6.77;1.80;;;5.00;99.90;;;;;;5007919;28;20428;-70
2023/01/15 09:13:14;;;;;;;3.93;1.77;;;5.00;99.90;;;;;;5009310;28;20597;-70
2023/01/15 09:15:40;;;;;;;1.20;0.50;;;5.00;99.90;;;;;;5012591;28;20186;-70
2023/01/15 09:18:05;;;;;;;1.03;0.40;;;5.00;99.90;;;;;;5010994;28;20197;-70
2023/01/15 09:20:31;;;;;;;1.10;0.50;;;5.00;99.90;;;;;;5011313;28;20549;-69
2023/01/15 09:22:56;;;;;;;1.07;0.40;;;4.90;99.90;;;;;;5003222;28;20188;-70
2023/01/15 09:25:23;;;;;;;1.10;0.40;;;4.90;99.90;;;;;;5013222;28;20230;-71
2023/01/15 09:27:49;;;;;;;1.10;0.50;;;4.90;99.90;;;;;;5008229;28;20270;-70
2023/01/15 09:30:19;;;;;;;1.37;0.63;;;4.90;99.90;;;;;;5006912;28;20513;-69
2023/01/15 09:32:45;;;;;;;2.17;0.90;;;4.90;99.90;;;;;;4993239;28;20230;-69
2023/01/15 09:35:11;;;;;;;2.13;0.87;;;4.90;99.90;;;;;;4993778;28;20427;-69
2023/01/15 09:37:36;;;;;;;1.30;0.60;;;4.90;99.90;;;;;;4993834;28;20569;-70
2023/01/15 09:40:04;;;;;;;1.10;0.47;;;4.90;99.90;;;;;;5006850;28;20709;-70
2023/01/15 09:42:30;;;;;;;1.10;0.50;;;4.90;99.90;;;;;;4993375;28;20258;-69
2023/01/15 09:45:24;;;;;;;1.43;0.60;;;4.90;99.90;;;;;;5003965;28;20883;-68
2023/01/15 09:48:16;;;;;;;1.10;0.40;;;4.80;99.90;;;;;;5007648;28;20532;-69
2023/01/15 09:51:06;;;;;;;1.03;0.40;;;4.70;99.90;;;;;;4999387;28;20572;-68
2023/01/15 09:53:40;;;;;;;1.20;0.50;;;4.60;99.90;;;;;;5010896;28;20525;-68
2023/01/15 09:56:18;;;;;;;1.20;0.60;;;4.50;99.90;;;;;;5008674;28;20423;-68
2023/01/15 09:58:43;;;;;;;3.00;0.50;;;4.50;99.90;;;;;;5011126;28;20480;-68
2023/01/15 10:01:17;;;;;;;3.03;0.50;;;4.50;99.90;;;;;;5012394;28;20798;-68
2023/01/15 10:03:55;;;;;;;3.53;1.33;;;4.50;99.90;;;;;;5002966;28;20190;-69
2023/01/15 10:06:25;;;;;;;2.43;0.90;;;4.50;99.90;;;;;;4997747;28;20436;-68
2023/01/15 10:08:59;;;;;;;1.50;0.70;;;4.60;99.90;;;;;;5012757;28;20514;-69
2023/01/15 10:14:31;;;;;;;2.13;0.90;;;4.60;99.90;;;;;;4992563;28;20438;-69
2023/01/15 10:16:57;;;;;;;1.43;0.53;;;4.60;99.90;;;;;;5004173;28;20517;-68
2023/01/15 10:19:23;;;;;;;1.10;0.50;;;4.60;99.90;;;;;;4999440;28;20560;-69
2023/01/15 10:22:04;;;;;;;1.10;0.50;;;4.60;99.90;;;;;;5012301;28;20189;-68
2023/01/15 10:24:49;;;;;;;1.20;0.50;;;4.70;99.90;;;;;;4992970;28;20191;-68
2023/01/15 10:27:19;;;;;;;1.27;0.50;;;4.60;99.90;;;;;;5008515;28;20433;-68
2023/01/15 10:29:46;;;;;;;1.63;0.60;;;4.60;99.90;;;;;;5007269;28;20448;-68
2023/01/15 10:32:23;;;;;;;3.90;0.77;;;4.50;99.90;;;;;;5009053;28;20497;-68
2023/01/15 10:35:16;;;;;;;2.93;1.03;;;4.50;99.90;;;;;;5006058;28;20432;-68
2023/01/15 10:38:05;;;;;;;1.47;0.70;;;4.40;99.90;;;;;;5000928;28;20432;-68
2023/01/15 10:40:43;;;;;;;3.30;1.20;;;4.30;99.90;;;;;;5012318;28;20421;-69
2023/01/15 10:43:27;;;;;;;3.33;0.87;;;4.20;99.90;;;;;;5011792;28;20859;-70
2023/01/15 10:45:55;;;;;;;2.27;1.30;;;4.20;99.90;;;;;;5011786;28;20879;-69
2023/01/15 10:48:44;;;;;;;2.90;0.63;;;4.20;99.90;;;;;;5009712;28;20956;-69
2023/01/15 10:51:42;;;;;;;1.20;0.60;;;4.20;99.90;;;;;;5004407;28;20471;-70
2023/01/15 10:54:34;;;;;;;1.20;0.50;;;4.10;99.90;;;;;;4987912;28;20438;-69
2023/01/15 10:57:11;;;;;;;1.20;0.50;;;4.10;99.90;;;;;;4992265;28;20480;-69
2023/01/15 10:59:56;;;;;;;5.37;1.10;;;4.10;99.90;;;;;;5004864;28;20473;-68
2023/01/15 11:02:36;;;;;;;1.30;0.50;;;4.10;99.90;;;;;;5011349;28;20424;-70
2023/01/15 11:05:03;;;;;;;2.80;0.90;;;4.00;99.90;;;;;;4991374;28;20935;-69
2023/01/15 11:07:40;;;;;;;3.00;0.70;;;4.00;99.90;;;;;;5005674;28;20426;-68
2023/01/15 11:10:17;;;;;;;1.30;0.60;;;4.00;99.90;;;;;;5000597;28;20461;-69
2023/01/15 11:21:23;;;;;;;3.60;1.10;;;4.00;99.90;;;;;;4995051;28;20403;-69
2023/01/15 11:23:50;;;;;;;1.17;0.53;;;3.90;99.90;;;;;;5005921;28;20418;-68
2023/01/15 11:26:23;;;;;;;3.13;0.60;;;3.90;99.90;;;;;;5003318;28;20430;-69
2023/01/15 11:28:49;;;;;;;1.10;0.50;;;3.90;99.90;;;;;;5007150;28;20860;-69
2023/01/15 11:31:15;;;;;;;1.27;0.67;;;3.70;99.90;;;;;;5002780;28;20445;-68
2023/01/15 11:34:00;;;;;;;1.93;0.67;;;3.60;99.90;;;;;;5010373;28;20429;-69
2023/01/15 11:36:27;;;;;;;1.40;0.50;;;3.50;99.90;;;;;;5011140;28;20492;-69
2023/01/15 11:38:53;;;;;;;1.50;0.50;;;3.50;99.90;;;;;;4997268;28;20465;-68
2023/01/15 11:52:59;;;;;;;1.13;0.50;;;3.20;99.90;;;;;;5010745;28;20425;-72
2023/01/15 11:55:27;;;;;;;1.10;0.40;;;3.20;99.90;;;;;;4991129;28;20431;-72
2023/01/15 11:57:54;;;;;;;1.00;0.40;;;3.20;99.90;;;;;;5001590;28;20208;-69
2023/01/15 12:00:27;;;;;;;1.17;0.63;;;3.20;99.90;;;;;;5010176;28;20465;-70
2023/01/15 12:03:13;;;;;;;1.47;0.60;;;3.10;99.90;;;;;;5007153;28;20895;-70
2023/01/15 12:06:04;;;;;;;1.60;0.60;;;3.10;99.90;;;;;;5004033;28;20418;-70
2023/01/15 12:08:51;;;;;;;1.10;0.40;;;3.10;99.90;;;;;;4999661;28;20434;-70
2023/01/15 12:11:49;;;;;;;1.27;0.50;;;3.10;99.90;;;;;;4993495;28;20804;-71
2023/01/15 12:14:40;;;;;;;1.87;0.73;;;3.10;99.90;;;;;;5003401;28;21014;-71
2023/01/15 12:17:41;;;;;;;1.30;0.70;;;3.00;99.90;;;;;;5009130;28;20433;-70
2023/01/15 12:20:25;;;;;;;1.10;0.50;;;3.10;99.90;;;;;;5010391;28;20462;-70
2023/01/15 12:23:15;;;;;;;1.70;0.60;;;3.10;99.90;;;;;;5000036;28;20942;-70
2023/01/15 12:25:59;;;;;;;1.73;0.73;;;3.10;99.90;;;;;;5005676;28;20430;-70
2023/01/15 12:28:30;;;;;;;1.10;0.50;;;3.10;99.90;;;;;;5010268;28;20421;-70
2023/01/15 12:31:15;;;;;;;1.00;0.40;;;3.10;99.90;;;;;;5012480;28;20914;-71
2023/01/15 12:34:02;;;;;;;7.50;0.73;;;3.20;99.90;;;;;;4999773;28;20450;-70
2023/01/15 12:36:48;;;;;;;1.00;0.40;;;3.20;99.90;;;;;;5001699;28;20422;-71
2023/01/15 12:39:17;;;;;;;1.00;0.40;;;3.20;99.90;;;;;;5006078;28;20473;-71
2023/01/15 12:45:00;;;;;;;1.10;0.47;;;3.00;99.90;;;;;;4995891;28;21177;-71
2023/01/15 12:47:59;;;;;;;1.00;0.40;;;3.00;99.90;;;;;;4993477;28;20530;-71
2023/01/15 12:50:30;;;;;;;1.10;0.40;;;3.00;99.90;;;;;;4989517;28;20427;-71
2023/01/15 12:53:13;;;;;;;1.23;0.70;;;3.00;99.90;;;;;;4993184;28;20414;-71
2023/01/15 12:56:11;;;;;;;1.60;0.60;;;3.00;99.90;;;;;;5001853;28;20540;-72
2023/01/15 12:58:41;;;;;;;1.30;0.60;;;3.00;99.90;;;;;;4992285;28;20766;-71
2023/01/15 13:01:22;;;;;;;1.77;0.70;;;2.90;99.90;;;;;;5011249;28;20468;-71
2023/01/15 13:03:58;;;;;;;1.40;0.50;;;2.90;99.90;;;;;;5008544;28;20429;-71
2023/01/15 13:06:27;;;;;;;1.00;0.40;;;3.00;99.90;;;;;;5006599;28;20440;-72
2023/01/15 13:09:13;;;;;;;1.43;0.50;;;3.00;99.90;;;;;;5004045;28;20508;-72
2023/01/15 13:11:39;;;;;;;1.40;0.70;;;3.10;99.90;;;;;;5009269;28;20484;-71
2023/01/15 13:14:15;;;;;;;1.30;0.50;;;3.10;99.90;;;;;;5006551;28;20813;-71
2023/01/15 13:16:49;;;;;;;1.47;0.70;;;3.10;99.90;;;;;;5001181;28;20270;-71
2023/01/15 13:19:33;;;;;;;1.97;0.77;;;3.20;99.90;;;;;;5003432;28;20471;-71
2023/01/15 13:22:07;;;;;;;2.50;0.60;;;3.20;99.90;;;;;;5009443;28;20529;-72
2023/01/15 13:25:17;;;;;;;1.30;0.50;;;3.20;99.90;;;;;;5008712;28;20459;-72
2023/01/15 13:28:18;;;;;;;1.20;0.50;;;3.30;99.90;;;;;;5005777;28;20456;-72
2023/01/15 13:30:51;;;;;;;2.90;1.00;;;3.30;99.90;;;;;;5008705;28;20937;-72
2023/01/15 13:33:42;;;;;;;1.33;0.60;;;3.30;99.90;;;;;;5006853;28;20545;-72
2023/01/15 13:36:16;;;;;;;1.20;0.50;;;3.30;99.90;;;;;;5010190;28;21072;-72
2023/01/15 13:38:48;;;;;;;4.47;0.70;;;3.30;99.90;;;;;;5001022;28;20486;-72
2023/01/15 13:42:30;;;;;;;2.60;0.50;;;3.30;99.90;;;;;;5006135;28;20476;-72
2023/01/15 13:44:16;;;;;;;1.20;0.57;;;3.40;99.90;;;;;;5006444;28;20944;-72
2023/01/15 13:46:42;;;;;;;3.20;1.10;;;3.40;99.90;;;;;;5001182;28;20931;-72
2023/01/15 13:49:22;;;;;;;6.10;0.83;;;3.30;99.90;;;;;;5007275;28;20463;-72
2023/01/15 13:51:49;;;;;;;3.57;0.97;;;3.30;99.90;;;;;;5009177;28;20210;-72
2023/01/15 13:54:19;;;;;;;1.50;0.47;;;3.30;99.90;;;;;;5012364;28;20438;-72
2023/01/15 13:56:45;;;;;;;1.10;0.50;;;3.30;99.90;;;;;;5010996;28;20933;-72
2023/01/15 13:59:33;;;;;;;1.83;0.80;;;3.40;99.90;;;;;;5011530;28;20477;-72
2023/01/15 14:01:59;;;;;;;1.70;0.63;;;3.40;99.90;;;;;;5010087;28;20280;-73
2023/01/15 14:04:38;;;;;;;2.33;0.80;;;3.50;99.90;;;;;;4996342;28;20445;-72
2023/01/15 14:07:16;;;;;;;2.40;0.80;;;3.70;99.90;;;;;;5007105;28;20619;-72
2023/01/15 14:09:42;;;;;;;4.33;0.90;;;3.80;99.90;;;;;;5011762;28;20432;-73
2023/01/15 14:12:19;;;;;;;1.40;0.60;;;3.90;99.90;;;;;;5007274;28;20497;-72
2023/01/15 14:14:50;;;;;;;1.60;0.70;;;3.90;99.90;;;;;;5007976;28;20186;-73
2023/01/15 14:17:31;;;;;;;1.10;0.60;;;3.90;99.90;;;;;;5009905;28;20413;-72